createdAt,value
2018-03-24T00:00:21.721Z,99.99
2018-03-24T00:05:17.458Z,99.99
2018-03-24T00:10:13.026Z,99.99
2018-03-24T00:15:09.681Z,99.99
2018-03-24T00:20:08.911Z,99.99
2018-03-24T00:25:04.193Z,99.99
2018-03-24T00:29:59.967Z,99.99
2018-03-24T00:34:59.642Z,99.99
2018-03-24T00:39:54.402Z,99.99
2018-03-24T00:44:53.903Z,99.99
2018-03-24T00:49:52.479Z,99.99
2018-03-24T00:54:47.167Z,99.99
2018-03-24T00:59:42.586Z,99.99
2018-03-24T01:04:43.028Z,99.99
2018-03-24T01:09:37.767Z,99.99
2018-03-24T01:14:33.277Z,99.99
2018-03-24T01:19:32.801Z,99.99
2018-03-24T01:24:27.503Z,99.99
2018-03-24T01:29:23.360Z,99.99
2018-03-24T01:34:19.103Z,99.99
2018-03-24T01:39:14.898Z,99.99
2018-03-24T01:44:15.614Z,99.99
2018-03-24T01:49:10.288Z,99.99
2018-03-24T01:54:07.131Z,99.99
2018-03-24T01:59:06.406Z,99.99
2018-03-24T02:04:01.150Z,99.99
2018-03-24T02:08:56.918Z,99.99
2018-03-24T02:13:52.735Z,99.99
2018-03-24T02:18:52.327Z,99.99
2018-03-24T02:23:48.173Z,99.99
2018-03-24T02:28:43.519Z,99.99
2018-03-24T02:33:43.302Z,99.99
2018-03-24T02:38:39.164Z,99.99
2018-03-24T02:43:34.702Z,99.99
2018-03-24T02:48:30.242Z,99.99
2018-03-24T02:53:25.699Z,99.99
2018-03-24T02:58:21.530Z,99.99
2018-03-24T03:03:18.015Z,99.99
2018-03-24T03:08:17.479Z,99.99
2018-03-24T03:13:14.108Z,99.99
2018-03-24T03:18:11.611Z,99.99
2018-03-24T03:23:06.661Z,99.99
2018-03-24T03:28:02.746Z,99.99
2018-03-24T03:32:58.497Z,99.99
2018-03-24T03:37:55.161Z,99.99
2018-03-24T03:42:51.671Z,99.99
2018-03-24T03:47:52.812Z,99.99
2018-03-24T03:52:52.092Z,99.99
2018-03-24T03:57:50.226Z,99.99
2018-03-24T04:02:49.248Z,99.99
2018-03-24T04:07:43.874Z,99.99
2018-03-24T04:12:40.466Z,99.99
2018-03-24T04:17:40.858Z,99.99
2018-03-24T04:22:36.576Z,99.99
2018-03-24T04:27:32.740Z,99.99
2018-03-24T04:32:28.922Z,99.99
2018-03-24T04:37:28.755Z,99.99
2018-03-24T04:42:23.528Z,99.99
2018-03-24T04:47:22.717Z,99.99
2018-03-24T04:52:19.232Z,99.99
2018-03-24T04:57:18.375Z,99.99
2018-03-24T05:02:18.014Z,99.99
2018-03-24T05:07:12.606Z,99.99
2018-03-24T05:12:09.221Z,99.99
2018-03-24T05:17:04.578Z,99.99
2018-03-24T05:22:01.082Z,99.99
2018-03-24T05:26:56.633Z,99.99
2018-03-24T05:31:53.386Z,99.99
2018-03-24T05:36:48.808Z,99.99
2018-03-24T05:41:49.705Z,99.99
2018-03-24T05:46:44.647Z,99.99
2018-03-24T05:51:44.306Z,99.99
2018-03-24T05:56:39.126Z,99.99
2018-03-24T06:01:38.742Z,99.99
2018-03-24T06:06:33.807Z,99.99
2018-03-24T06:11:30.506Z,99.99
2018-03-24T06:16:26.037Z,99.99
2018-03-24T06:21:22.286Z,99.99
2018-03-24T06:26:23.215Z,99.99
2018-03-24T06:31:17.952Z,99.99
2018-03-24T06:36:15.614Z,99.99
2018-03-24T06:41:11.509Z,99.99
2018-03-24T06:46:07.988Z,99.99
2018-03-24T06:51:03.736Z,99.99
2018-03-24T06:56:03.167Z,99.99
2018-03-24T07:01:01.755Z,99.99
2018-03-24T07:06:00.484Z,99.99
2018-03-24T07:10:55.205Z,99.99
2018-03-24T07:15:54.935Z,99.99
2018-03-24T07:20:50.132Z,99.99
2018-03-24T07:25:50.827Z,99.99
2018-03-24T07:30:45.671Z,99.99
2018-03-24T07:35:41.719Z,99.99
2018-03-24T07:40:38.213Z,99.99
2018-03-24T07:45:34.222Z,99.99
2018-03-24T07:50:30.921Z,99.99
2018-03-24T07:55:27.650Z,99.99
2018-03-24T08:05:24.384Z,99.99
2018-03-24T08:10:20.688Z,99.99
2018-03-24T08:15:21.735Z,99.99
2018-03-24T08:20:17.423Z,99.99
2018-03-24T08:25:18.000Z,99.99
2018-03-24T08:30:13.209Z,99.99
2018-03-24T08:35:12.179Z,99.99
2018-03-24T08:40:07.291Z,99.99
2018-03-24T08:45:07.801Z,99.99
2018-03-24T08:50:03.372Z,99.99
2018-03-24T08:55:02.757Z,99.99
2018-03-24T08:59:58.540Z,99.99
2018-03-24T09:04:54.158Z,99.99
2018-03-24T09:09:50.958Z,99.99
2018-03-24T09:14:46.577Z,99.99
2018-03-24T09:19:46.429Z,99.99
2018-03-24T09:24:41.277Z,99.99
2018-03-24T09:29:37.150Z,99.99
2018-03-24T09:34:33.100Z,99.99
2018-03-24T09:39:32.894Z,99.99
2018-03-24T09:44:27.859Z,99.89
2018-03-24T09:49:23.893Z,97.75
2018-03-24T09:54:19.892Z,92.27
2018-03-24T09:59:20.140Z,88.31
2018-03-24T10:04:15.619Z,91.36
2018-03-24T10:09:15.250Z,87.79
2018-03-24T10:14:11.262Z,85.97
2018-03-24T10:19:07.118Z,86.93
2018-03-24T10:24:07.889Z,84.69
2018-03-24T10:29:03.224Z,78.43
2018-03-24T10:34:04.277Z,77.86
2018-03-24T10:38:59.413Z,77.28
2018-03-24T10:43:56.355Z,74.61
2018-03-24T10:48:52.190Z,73.32
2018-03-24T10:53:48.954Z,71.88
2018-03-24T10:58:45.340Z,71.63
2018-03-24T11:03:42.537Z,66.38
2018-03-24T11:08:38.785Z,66.28
2018-03-24T11:13:36.997Z,64.94
2018-03-24T11:18:32.794Z,66.31
2018-03-24T11:23:29.205Z,63.76
2018-03-24T11:28:29.111Z,63.76
2018-03-24T11:33:30.340Z,59.75
2018-03-24T11:38:30.591Z,61.22
2018-03-24T11:43:25.179Z,63.57
2018-03-24T11:48:20.823Z,63.48
2018-03-24T11:53:17.260Z,61.60
2018-03-24T11:58:17.773Z,62.71
2018-03-24T12:03:10.787Z,66.53
2018-03-24T12:08:06.850Z,65.04
2018-03-24T12:13:07.335Z,67.11
2018-03-24T12:18:05.245Z,75.09
2018-03-24T12:23:05.409Z,71.75
2018-03-24T12:28:05.488Z,72.32
2018-03-24T12:33:01.070Z,72.96
2018-03-24T12:37:57.439Z,74.13
2018-03-24T12:42:57.928Z,74.01
2018-03-24T12:47:53.649Z,75.57
2018-03-24T12:52:49.948Z,76.42
2018-03-24T12:57:45.814Z,75.53
2018-03-24T13:02:41.523Z,73.62
2018-03-24T13:07:38.238Z,74.25
2018-03-24T13:12:33.707Z,74.06
2018-03-24T13:17:31.116Z,75.91
2018-03-24T13:22:27.008Z,73.28
2018-03-24T13:27:27.108Z,69.84
2018-03-24T13:32:23.237Z,72.71
2018-03-24T13:37:18.975Z,71.27
2018-03-24T13:42:16.313Z,74.23
2018-03-24T13:47:11.737Z,74.32
2018-03-24T13:52:07.336Z,73.81
2018-03-24T13:57:07.120Z,75.53
2018-03-24T14:02:05.949Z,74.38
2018-03-24T14:07:00.991Z,74.38
2018-03-24T14:11:56.691Z,77.25
2018-03-24T14:16:56.826Z,74.32
2018-03-24T14:21:52.089Z,72.76
2018-03-24T14:26:47.839Z,71.18
2018-03-24T14:31:43.476Z,72.48
2018-03-24T14:36:39.106Z,67.99
2018-03-24T14:41:35.816Z,69.96
2018-03-24T14:46:31.277Z,71.52
2018-03-24T14:51:26.910Z,72.16
2018-03-24T14:56:22.560Z,77.91
2018-03-24T15:01:18.138Z,73.62
2018-03-24T15:06:17.915Z,73.11
2018-03-24T15:11:13.022Z,73.58
2018-03-24T15:16:08.678Z,73.01
2018-03-24T15:21:05.524Z,73.62
2018-03-24T15:26:00.758Z,72.67
2018-03-24T15:31:00.228Z,72.16
2018-03-24T15:35:55.198Z,71.58
2018-03-24T15:40:54.641Z,75.11
2018-03-24T15:45:49.825Z,71.01
2018-03-24T15:50:45.405Z,73.58
2018-03-24T15:55:41.208Z,70.53
2018-03-24T16:00:37.179Z,69.96
2018-03-24T16:05:32.925Z,75.11
2018-03-24T16:10:29.300Z,73.01
2018-03-24T16:15:25.012Z,70.88
2018-03-24T16:20:21.646Z,71.73
2018-03-24T16:25:21.232Z,69.17
2018-03-24T16:30:19.829Z,70.21
2018-03-24T16:35:18.597Z,70.31
2018-03-24T16:40:13.532Z,70.40
2018-03-24T16:45:09.167Z,73.17
2018-03-24T16:50:04.845Z,73.65
2018-03-24T16:55:01.855Z,72.88
2018-03-24T17:00:02.041Z,73.17
2018-03-24T17:04:56.648Z,73.93
2018-03-24T17:09:52.434Z,75.16
2018-03-24T17:14:47.917Z,76.27
2018-03-24T17:19:44.551Z,82.27
2018-03-24T17:24:43.927Z,77.98
2018-03-24T17:29:38.665Z,76.75
2018-03-24T17:34:34.340Z,78.08
2018-03-24T17:39:30.085Z,79.03
2018-03-24T17:44:29.715Z,79.89
2018-03-24T17:49:28.462Z,80.94
2018-03-24T17:54:27.324Z,81.60
2018-03-24T17:59:26.283Z,82.90
2018-03-24T18:04:26.060Z,83.47
2018-03-24T18:09:20.385Z,83.85
2018-03-24T18:14:20.944Z,84.99
2018-03-24T18:19:17.560Z,84.89
2018-03-24T18:24:16.604Z,85.18
2018-03-24T18:29:11.660Z,86.94
2018-03-24T18:34:08.167Z,87.23
2018-03-24T18:39:03.581Z,87.99
2018-03-24T18:43:59.203Z,88.18
2018-03-24T18:48:58.885Z,96.36
2018-03-24T18:53:53.676Z,90.52
2018-03-24T18:58:50.971Z,98.12
2018-03-24T19:03:48.382Z,91.94
2018-03-24T19:08:43.861Z,91.85
2018-03-24T19:13:40.284Z,90.99
2018-03-24T19:18:39.656Z,91.66
2018-03-24T19:23:39.797Z,92.70
2018-03-24T19:28:34.510Z,93.46
2018-03-24T19:33:30.555Z,93.27
2018-03-24T19:38:31.004Z,94.74
2018-03-24T19:43:25.827Z,95.51
2018-03-24T19:48:26.370Z,97.03
2018-03-24T19:53:24.946Z,99.99
2018-03-24T19:58:19.786Z,97.41
2018-03-24T20:03:19.311Z,98.07
2018-03-24T20:08:14.338Z,99.99
2018-03-24T20:13:13.897Z,98.59
2018-03-24T20:18:12.667Z,99.99
2018-03-24T20:23:11.830Z,99.99
2018-03-24T20:28:11.748Z,99.99
2018-03-24T20:33:06.331Z,99.99
2018-03-24T20:38:03.895Z,99.99
2018-03-24T20:43:03.161Z,99.99
2018-03-24T20:47:57.841Z,99.99
2018-03-24T20:52:53.548Z,99.99
2018-03-24T20:57:53.955Z,99.99
2018-03-24T21:02:52.267Z,99.99
2018-03-24T21:07:47.260Z,99.99
2018-03-24T21:12:42.913Z,99.99
2018-03-24T21:17:38.568Z,99.99
2018-03-24T21:22:39.106Z,99.99
2018-03-24T21:27:37.836Z,99.99
2018-03-24T21:32:32.354Z,99.99
2018-03-24T21:37:33.491Z,99.99
2018-03-24T21:42:28.859Z,99.99
2018-03-24T21:47:24.432Z,99.99
2018-03-24T21:52:23.957Z,99.99
2018-03-24T21:57:19.326Z,99.99
2018-03-24T22:02:18.878Z,99.99
2018-03-24T22:07:17.763Z,99.99
2018-03-24T22:12:17.353Z,99.99
2018-03-24T22:17:15.821Z,99.99
2018-03-24T22:22:11.198Z,99.99
2018-03-24T22:27:07.135Z,99.99
2018-03-24T22:32:03.791Z,99.99
2018-03-24T22:37:04.320Z,99.99
2018-03-24T22:41:59.919Z,99.99
2018-03-24T22:46:55.234Z,99.99
2018-03-24T22:51:51.892Z,99.99
2018-03-24T22:56:47.210Z,99.99
2018-03-24T23:01:44.020Z,99.99
2018-03-24T23:06:42.865Z,99.99
2018-03-24T23:11:42.900Z,99.99
2018-03-24T23:16:41.641Z,99.99
2018-03-24T23:21:40.924Z,99.99
2018-03-24T23:26:36.859Z,99.99
2018-03-24T23:31:32.186Z,99.99
2018-03-24T23:36:27.840Z,99.99
2018-03-24T23:41:24.863Z,99.99
2018-03-24T23:46:20.142Z,99.99
2018-03-24T23:51:15.842Z,99.99
2018-03-24T23:56:11.718Z,99.99
